createdAt,value
2023-02-25T00:01:14.250Z,98240.00
2023-02-25T00:02:48.491Z,98231.00
2023-02-25T00:04:21.701Z,98228.00
2023-02-25T00:05:55.208Z,98230.00
2023-02-25T00:07:28.830Z,98227.00
2023-02-25T00:09:02.402Z,98242.00
2023-02-25T00:10:35.087Z,98242.00
2023-02-25T00:12:11.103Z,98234.00
2023-02-25T00:13:44.810Z,98236.00
2023-02-25T00:15:20.978Z,98237.00
2023-02-25T00:17:02.643Z,98238.00
2023-02-25T00:18:44.964Z,98243.00
2023-02-25T00:20:23.080Z,98241.00
2023-02-25T00:22:01.876Z,98236.00
2023-02-25T00:23:44.582Z,98238.00
2023-02-25T00:25:29.623Z,98243.00
2023-02-25T00:27:08.618Z,98241.00
2023-02-25T00:28:49.466Z,98222.00
2023-02-25T00:30:29.915Z,98245.00
2023-02-25T00:32:07.595Z,98229.00
2023-02-25T00:33:48.206Z,98241.00
2023-02-25T00:35:30.078Z,98234.00
2023-02-25T00:37:10.022Z,98239.00
2023-02-25T00:38:52.709Z,98226.00
2023-02-25T00:40:32.106Z,98213.00
2023-02-25T00:42:15.730Z,98224.00
2023-02-25T00:43:57.393Z,98216.00
2023-02-25T00:45:41.247Z,98223.00
2023-02-25T00:47:24.181Z,98219.00
2023-02-25T00:49:00.252Z,98217.00
2023-02-25T00:50:32.731Z,98216.00
2023-02-25T00:52:06.396Z,98225.00
2023-02-25T00:53:43.084Z,98222.00
2023-02-25T00:55:20.360Z,98221.00
2023-02-25T00:56:59.529Z,98233.00
2023-02-25T00:58:39.940Z,98222.00
2023-02-25T01:00:19.612Z,98217.00
2023-02-25T01:01:57.386Z,98224.00
2023-02-25T01:03:34.994Z,98219.00
2023-02-25T01:05:12.291Z,98214.00
2023-02-25T01:06:49.633Z,98225.00
2023-02-25T01:08:29.373Z,98222.00
2023-02-25T01:10:11.343Z,98223.00
2023-02-25T01:11:50.786Z,98229.00
2023-02-25T01:13:27.385Z,98232.00
2023-02-25T01:15:04.664Z,98224.00
2023-02-25T01:16:47.466Z,98229.00
2023-02-25T01:18:31.947Z,98225.00
2023-02-25T01:20:14.049Z,98232.00
2023-02-25T01:21:53.012Z,98228.00
2023-02-25T01:23:30.964Z,98236.00
2023-02-25T01:25:17.172Z,98225.00
2023-02-25T01:26:55.438Z,98227.00
2023-02-25T01:28:34.425Z,98226.00
2023-02-25T01:30:12.485Z,98219.00
2023-02-25T01:31:55.130Z,98235.00
2023-02-25T01:33:33.411Z,98234.00
2023-02-25T01:35:09.949Z,98229.00
2023-02-25T01:36:50.344Z,98239.00
2023-02-25T01:38:28.050Z,98233.00
2023-02-25T01:40:05.727Z,98234.00
2023-02-25T01:41:46.914Z,98229.00
2023-02-25T01:43:24.530Z,98227.00
2023-02-25T01:45:32.467Z,98233.00
2023-02-25T01:47:23.083Z,98235.00
2023-02-25T01:49:07.621Z,98234.00
2023-02-25T01:50:52.939Z,98238.00
2023-02-25T01:52:32.485Z,98241.00
2023-02-25T01:54:13.488Z,98226.00
2023-02-25T01:55:50.100Z,98237.00
2023-02-25T01:57:30.837Z,98236.00
2023-02-25T01:59:09.592Z,98236.00
2023-02-25T02:00:48.097Z,98235.00
2023-02-25T02:02:35.219Z,98230.00
2023-02-25T02:04:20.722Z,98232.00
2023-02-25T02:06:04.977Z,98224.00
2023-02-25T02:07:49.451Z,98238.00
2023-02-25T02:09:29.203Z,98238.00
2023-02-25T02:11:07.726Z,98233.00
2023-02-25T02:12:47.874Z,98234.00
2023-02-25T02:14:38.119Z,98224.00
2023-02-25T02:16:38.701Z,98239.00
2023-02-25T02:18:17.177Z,98226.00
2023-02-25T02:20:14.721Z,98236.00
2023-02-25T02:22:11.872Z,98234.00
2023-02-25T02:24:42.901Z,98225.00
2023-02-25T02:26:59.280Z,98224.00
2023-02-25T02:29:25.889Z,98230.00
2023-02-25T02:31:35.687Z,98227.00
2023-02-25T02:33:19.677Z,98243.00
2023-02-25T02:35:15.638Z,98230.00
2023-02-25T02:37:05.321Z,98227.00
2023-02-25T02:38:55.996Z,98225.00
2023-02-25T02:40:54.391Z,98229.00
2023-02-25T02:42:42.418Z,98224.00
2023-02-25T02:44:27.328Z,98222.00
2023-02-25T02:46:16.734Z,98219.00
2023-02-25T02:48:00.924Z,98224.00
2023-02-25T02:49:46.264Z,98215.00
2023-02-25T02:51:29.548Z,98219.00
2023-02-25T02:53:17.749Z,98226.00
2023-02-25T02:55:07.483Z,98224.00
2023-02-25T02:56:49.395Z,98221.00
2023-02-25T02:58:36.487Z,98222.00
2023-02-25T03:00:20.683Z,98219.00
2023-02-25T03:02:10.180Z,98230.00
2023-02-25T03:03:55.240Z,98223.00
2023-02-25T03:05:35.600Z,98222.00
2023-02-25T03:07:15.805Z,98225.00
2023-02-25T03:08:58.225Z,98230.00
2023-02-25T03:10:36.739Z,98228.00
2023-02-25T03:12:16.081Z,98231.00
2023-02-25T03:13:54.779Z,98236.00
2023-02-25T03:15:34.081Z,98237.00
2023-02-25T03:17:17.628Z,98245.00
2023-02-25T03:19:04.955Z,98235.00
2023-02-25T03:20:46.239Z,98240.00
2023-02-25T03:22:30.319Z,98226.00
2023-02-25T03:24:13.432Z,98229.00
2023-02-25T03:25:59.886Z,98233.00
2023-02-25T03:27:41.770Z,98236.00
2023-02-25T03:29:24.744Z,98242.00
2023-02-25T03:31:10.457Z,98240.00
2023-02-25T03:32:57.401Z,98245.00
2023-02-25T03:34:41.030Z,98247.00
2023-02-25T03:36:23.054Z,98236.00
2023-02-25T03:38:10.635Z,98240.00
2023-02-25T03:39:56.469Z,98244.00
2023-02-25T03:41:39.058Z,98255.00
2023-02-25T03:43:25.838Z,98231.00
2023-02-25T03:45:07.633Z,98245.00
2023-02-25T03:46:48.798Z,98251.00
2023-02-25T03:48:28.954Z,98255.00
2023-02-25T03:50:18.166Z,98247.00
2023-02-25T03:52:04.331Z,98251.00
2023-02-25T03:53:41.984Z,98245.00
2023-02-25T03:55:23.264Z,98258.00
2023-02-25T03:57:06.301Z,98259.00
2023-02-25T03:58:46.371Z,98265.00
2023-02-25T04:00:30.628Z,98257.00
2023-02-25T04:02:09.134Z,98262.00
2023-02-25T04:03:48.101Z,98267.00
2023-02-25T04:05:28.383Z,98263.00
2023-02-25T04:07:06.324Z,98263.00
2023-02-25T04:08:44.688Z,98268.00
2023-02-25T04:10:24.105Z,98271.00
2023-02-25T04:12:01.716Z,98258.00
2023-02-25T04:13:40.477Z,98258.00
2023-02-25T04:15:20.995Z,98272.00
2023-02-25T04:17:04.285Z,98278.00
2023-02-25T04:18:41.049Z,98288.00
2023-02-25T04:20:20.597Z,98266.00
2023-02-25T04:21:58.390Z,98280.00
2023-02-25T04:23:35.848Z,98278.00
2023-02-25T04:25:15.519Z,98278.00
2023-02-25T04:26:59.189Z,98284.00
2023-02-25T04:28:36.508Z,98285.00
2023-02-25T04:30:15.499Z,98283.00
2023-02-25T04:31:53.119Z,98288.00
2023-02-25T04:33:29.994Z,98288.00
2023-02-25T04:35:10.217Z,98293.00
2023-02-25T04:36:49.116Z,98284.00
2023-02-25T04:38:27.178Z,98284.00
2023-02-25T04:40:02.820Z,98291.00
2023-02-25T04:41:40.625Z,98281.00
2023-02-25T04:43:17.890Z,98274.00
2023-02-25T04:44:58.262Z,98287.00
2023-02-25T04:46:37.475Z,98284.00
2023-02-25T04:48:14.864Z,98281.00
2023-02-25T04:49:52.933Z,98288.00
2023-02-25T04:51:30.427Z,98281.00
2023-02-25T04:53:14.445Z,98283.00
2023-02-25T04:54:54.733Z,98291.00
2023-02-25T04:56:32.237Z,98286.00
2023-02-25T04:58:09.860Z,98287.00
2023-02-25T04:59:47.995Z,98291.00
2023-02-25T05:01:25.578Z,98300.00
2023-02-25T05:03:05.266Z,98284.00
2023-02-25T05:04:43.464Z,98281.00
2023-02-25T05:06:19.317Z,98273.00
2023-02-25T05:07:56.788Z,98272.00
2023-02-25T05:09:38.887Z,98273.00
2023-02-25T05:11:18.030Z,98279.00
2023-02-25T05:13:01.067Z,98283.00
2023-02-25T05:14:40.425Z,98285.00
2023-02-25T05:16:20.011Z,98282.00
2023-02-25T05:17:57.984Z,98278.00
2023-02-25T05:19:34.063Z,98272.00
2023-02-25T05:21:13.977Z,98285.00
2023-02-25T05:22:53.531Z,98286.00
2023-02-25T05:24:30.708Z,98272.00
2023-02-25T05:26:14.257Z,98267.00
2023-02-25T05:27:53.788Z,98275.00
2023-02-25T05:29:31.787Z,98285.00
2023-02-25T05:31:11.014Z,98281.00
2023-02-25T05:32:49.021Z,98284.00
2023-02-25T05:34:26.644Z,98284.00
2023-02-25T05:36:03.525Z,98273.00
2023-02-25T05:37:41.124Z,98289.00
2023-02-25T05:39:18.717Z,98298.00
2023-02-25T05:40:58.896Z,98295.00
2023-02-25T05:42:36.744Z,98291.00
2023-02-25T05:44:17.790Z,98289.00
2023-02-25T05:45:57.821Z,98275.00
2023-02-25T05:47:35.689Z,98284.00
2023-02-25T05:49:16.431Z,98292.00
2023-02-25T05:50:55.332Z,98280.00
2023-02-25T05:52:32.581Z,98286.00
2023-02-25T05:54:10.233Z,98282.00
2023-02-25T05:55:47.667Z,98282.00
2023-02-25T05:57:27.909Z,98286.00
2023-02-25T05:59:08.940Z,98305.00
2023-02-25T06:00:46.086Z,98304.00
2023-02-25T06:02:23.139Z,98294.00
2023-02-25T06:04:03.868Z,98309.00
2023-02-25T06:05:47.765Z,98309.00
2023-02-25T06:07:24.768Z,98305.00
2023-02-25T06:09:03.505Z,98300.00
2023-02-25T06:10:42.170Z,98305.00
2023-02-25T06:12:19.521Z,98301.00
2023-02-25T06:13:59.191Z,98300.00
2023-02-25T06:15:40.578Z,98312.00
2023-02-25T06:17:18.095Z,98302.00
2023-02-25T06:18:57.004Z,98301.00
2023-02-25T06:20:35.873Z,98310.00
2023-02-25T06:22:13.540Z,98305.00
2023-02-25T06:23:52.444Z,98309.00
2023-02-25T06:25:30.603Z,98309.00
2023-02-25T06:27:08.573Z,98318.00
2023-02-25T06:28:46.170Z,98324.00
2023-02-25T06:30:23.199Z,98327.00
2023-02-25T06:32:02.579Z,98328.00
2023-02-25T06:33:40.764Z,98324.00
2023-02-25T06:35:18.527Z,98327.00
2023-02-25T06:36:55.680Z,98327.00
2023-02-25T06:38:31.597Z,98335.00
2023-02-25T06:40:11.686Z,98330.00
2023-02-25T06:41:50.179Z,98336.00
2023-02-25T06:43:29.589Z,98347.00
2023-02-25T06:45:07.746Z,98332.00
2023-02-25T06:46:48.018Z,98338.00
2023-02-25T06:48:27.220Z,98336.00
2023-02-25T06:50:04.540Z,98337.00
2023-02-25T06:51:42.054Z,98343.00
2023-02-25T06:53:20.975Z,98342.00
2023-02-25T06:54:58.066Z,98340.00
2023-02-25T06:56:37.580Z,98344.00
2023-02-25T06:58:15.646Z,98349.00
2023-02-25T06:59:53.881Z,98345.00
2023-02-25T07:01:33.575Z,98351.00
2023-02-25T07:03:13.249Z,98357.00
2023-02-25T07:04:51.856Z,98361.00
2023-02-25T07:06:29.290Z,98359.00
2023-02-25T07:08:06.358Z,98359.00
2023-02-25T07:09:44.246Z,98361.00
2023-02-25T07:11:36.616Z,98365.00
2023-02-25T07:13:14.966Z,98356.00
2023-02-25T07:14:52.441Z,98356.00
2023-02-25T07:16:31.109Z,98356.00
2023-02-25T07:18:08.974Z,98356.00
2023-02-25T07:19:46.431Z,98348.00
2023-02-25T07:21:25.566Z,98353.00
2023-02-25T07:23:08.778Z,98355.00
2023-02-25T07:24:46.607Z,98359.00
2023-02-25T07:26:26.111Z,98361.00
2023-02-25T07:28:02.952Z,98362.00
2023-02-25T07:29:40.284Z,98365.00
2023-02-25T07:31:23.237Z,98360.00
2023-02-25T07:33:00.534Z,98364.00
2023-02-25T07:34:38.180Z,98359.00
2023-02-25T07:36:15.452Z,98363.00
2023-02-25T07:37:54.339Z,98361.00
2023-02-25T07:39:34.933Z,98376.00
2023-02-25T07:41:14.432Z,98368.00
2023-02-25T07:42:51.678Z,98372.00
2023-02-25T07:44:31.654Z,98372.00
2023-02-25T07:46:08.860Z,98367.00
2023-02-25T07:47:45.627Z,98377.00
2023-02-25T07:49:25.241Z,98376.00
2023-02-25T07:51:12.393Z,98379.00
2023-02-25T07:52:50.968Z,98390.00
2023-02-25T07:54:31.918Z,98388.00
2023-02-25T07:56:11.184Z,98388.00
2023-02-25T07:57:50.950Z,98397.00
2023-02-25T07:59:31.745Z,98388.00
2023-02-25T08:01:16.140Z,98387.00
2023-02-25T08:02:56.213Z,98395.00
2023-02-25T08:04:34.183Z,98390.00
2023-02-25T08:06:11.940Z,98397.00
2023-02-25T08:07:48.546Z,98388.00
2023-02-25T08:09:25.819Z,98389.00
2023-02-25T08:11:08.427Z,98388.00
2023-02-25T08:12:46.453Z,98397.00
2023-02-25T08:14:26.821Z,98394.00
2023-02-25T08:16:06.989Z,98398.00
2023-02-25T08:17:50.920Z,98396.00
2023-02-25T08:19:30.754Z,98402.00
2023-02-25T08:21:10.950Z,98387.00
2023-02-25T08:22:48.096Z,98404.00
2023-02-25T08:24:28.546Z,98408.00
2023-02-25T08:26:06.342Z,98414.00
2023-02-25T08:27:44.684Z,98415.00
2023-02-25T08:29:21.480Z,98407.00
2023-02-25T08:31:03.242Z,98408.00
2023-02-25T08:32:43.655Z,98413.00
2023-02-25T08:34:20.367Z,98404.00
2023-02-25T08:35:57.689Z,98400.00
2023-02-25T08:37:34.226Z,98418.00
2023-02-25T08:39:11.039Z,98424.00
2023-02-25T08:40:47.838Z,98420.00
2023-02-25T08:42:31.361Z,98423.00
2023-02-25T08:44:08.065Z,98428.00
2023-02-25T08:45:45.989Z,98433.00
2023-02-25T08:47:22.460Z,98426.00
2023-02-25T08:49:01.613Z,98430.00
2023-02-25T08:50:41.048Z,98425.00
2023-02-25T08:52:17.578Z,98425.00
2023-02-25T08:53:55.422Z,98428.00
2023-02-25T08:55:37.785Z,98441.00
2023-02-25T08:57:14.586Z,98432.00
2023-02-25T08:58:55.476Z,98434.00
2023-02-25T09:00:34.350Z,98439.00
2023-02-25T09:02:17.778Z,98435.00
2023-02-25T09:04:00.025Z,98434.00
2023-02-25T09:05:38.778Z,98440.00
2023-02-25T09:07:26.662Z,98441.00
2023-02-25T09:09:07.146Z,98443.00
2023-02-25T09:10:50.229Z,98441.00
2023-02-25T09:12:39.190Z,98440.00
2023-02-25T09:14:19.482Z,98437.00
2023-02-25T09:15:59.969Z,98454.00
2023-02-25T09:17:38.227Z,98457.00
2023-02-25T09:19:17.440Z,98448.00
2023-02-25T09:20:52.507Z,98440.00
2023-02-25T09:22:25.839Z,98447.00
2023-02-25T09:24:00.739Z,98444.00
2023-02-25T09:25:37.243Z,98460.00
2023-02-25T09:27:15.515Z,98458.00
2023-02-25T09:28:51.891Z,98462.00
2023-02-25T09:30:29.745Z,98454.00
2023-02-25T09:32:08.210Z,98461.00
2023-02-25T09:33:45.450Z,98463.00
2023-02-25T09:35:23.492Z,98460.00
2023-02-25T09:37:00.180Z,98455.00
2023-02-25T09:38:40.589Z,98468.00
2023-02-25T09:40:23.522Z,98460.00
2023-02-25T09:42:13.220Z,98457.00
2023-02-25T09:43:56.319Z,98458.00
2023-02-25T09:45:38.264Z,98462.00
2023-02-25T09:47:23.414Z,98450.00
2023-02-25T09:49:13.866Z,98467.00
2023-02-25T09:50:59.958Z,98468.00
2023-02-25T09:52:44.041Z,98456.00
2023-02-25T09:54:31.575Z,98474.00
2023-02-25T09:56:11.212Z,98492.00
2023-02-25T09:57:57.626Z,98549.00
2023-02-25T09:59:40.629Z,98545.00
2023-02-25T10:01:35.125Z,98552.00
2023-02-25T10:03:24.941Z,98552.00
2023-02-25T10:05:27.854Z,98539.00
2023-02-25T10:07:22.080Z,98522.00
2023-02-25T10:09:17.619Z,98521.00
2023-02-25T10:11:06.779Z,98542.00
2023-02-25T10:12:58.275Z,98528.00
2023-02-25T10:15:09.743Z,98535.00
2023-02-25T10:16:59.616Z,98546.00
2023-02-25T10:19:05.461Z,98547.00
2023-02-25T10:21:08.505Z,98545.00
2023-02-25T10:23:01.828Z,98538.00
2023-02-25T10:24:49.696Z,98529.00
2023-02-25T10:26:37.902Z,98523.00
2023-02-25T10:28:20.877Z,98536.00
2023-02-25T10:30:06.691Z,98538.00
2023-02-25T10:31:48.204Z,98535.00
2023-02-25T10:33:30.191Z,98547.00
2023-02-25T10:35:27.101Z,98536.00
2023-02-25T10:37:13.951Z,98543.00
2023-02-25T10:38:53.204Z,98535.00
2023-02-25T10:40:33.018Z,98544.00
2023-02-25T10:42:10.515Z,98543.00
2023-02-25T10:43:51.985Z,98535.00
2023-02-25T10:45:33.030Z,98526.00
2023-02-25T10:47:26.223Z,98539.00
2023-02-25T10:49:21.225Z,98585.00
2023-02-25T10:51:15.463Z,98595.00
2023-02-25T10:53:05.362Z,98606.00
2023-02-25T10:54:51.151Z,98603.00
2023-02-25T10:56:33.561Z,98604.00
2023-02-25T10:58:35.750Z,98598.00
2023-02-25T11:00:29.766Z,98605.00
2023-02-25T11:02:23.866Z,98603.00
2023-02-25T11:04:10.205Z,98591.00
2023-02-25T11:05:51.929Z,98597.00
2023-02-25T11:07:38.920Z,98592.00
2023-02-25T11:09:40.473Z,98604.00
2023-02-25T11:11:24.983Z,98604.00
2023-02-25T11:13:06.329Z,98593.00
2023-02-25T11:14:43.439Z,98608.00
2023-02-25T11:16:25.628Z,98594.00
2023-02-25T11:18:21.680Z,98594.00
2023-02-25T11:20:10.027Z,98594.00
2023-02-25T11:21:48.781Z,98592.00
2023-02-25T11:23:35.140Z,98591.00
2023-02-25T11:25:23.052Z,98591.00
2023-02-25T11:27:04.733Z,98583.00
2023-02-25T11:28:49.207Z,98585.00
2023-02-25T11:30:35.635Z,98590.00
2023-02-25T11:32:17.030Z,98578.00
2023-02-25T11:34:02.781Z,98583.00
2023-02-25T11:35:44.027Z,98588.00
2023-02-25T11:37:39.211Z,98587.00
2023-02-25T11:39:25.242Z,98580.00
2023-02-25T11:41:04.132Z,98576.00
2023-02-25T11:42:43.498Z,98580.00
2023-02-25T11:44:33.112Z,98568.00
2023-02-25T11:46:16.042Z,98573.00
2023-02-25T11:47:54.631Z,98574.00
2023-02-25T11:50:01.324Z,98577.00
2023-02-25T11:51:49.059Z,98578.00
2023-02-25T11:53:50.715Z,98575.00
2023-02-25T11:55:53.591Z,98571.00
2023-02-25T11:57:43.830Z,98569.00
2023-02-25T11:59:47.576Z,98563.00
2023-02-25T12:01:55.660Z,98564.00
2023-02-25T12:04:17.043Z,98558.00
2023-02-25T12:06:24.102Z,98571.00
2023-02-25T12:08:40.300Z,98566.00
2023-02-25T12:11:09.099Z,98595.00
2023-02-25T12:13:32.061Z,98586.00
2023-02-25T12:16:08.610Z,98594.00
2023-02-25T12:18:38.120Z,98588.00
2023-02-25T12:21:20.304Z,98605.00
2023-02-25T12:24:01.736Z,98611.00
2023-02-25T12:25:52.404Z,98600.00
2023-02-25T12:28:29.863Z,98605.00
2023-02-25T12:31:03.075Z,98601.00
2023-02-25T12:33:05.538Z,98601.00
2023-02-25T12:35:37.012Z,98594.00
2023-02-25T12:37:35.176Z,98592.00
2023-02-25T12:39:38.844Z,98598.00
2023-02-25T12:41:51.243Z,98616.00
2023-02-25T12:46:29.282Z,98611.00
2023-02-25T12:49:01.406Z,98609.00
2023-02-25T12:51:18.529Z,98609.00
2023-02-25T12:53:36.686Z,98619.00
2023-02-25T12:56:20.911Z,98621.00
2023-02-25T12:58:51.436Z,98617.00
2023-02-25T13:01:08.925Z,98621.00
2023-02-25T13:03:22.590Z,98603.00
2023-02-25T13:05:39.558Z,98605.00
2023-02-25T13:08:05.220Z,98620.00
2023-02-25T13:10:38.499Z,98616.00
2023-02-25T13:12:36.112Z,98621.00
2023-02-25T13:14:40.324Z,98627.00
2023-02-25T13:16:43.133Z,98636.00
2023-02-25T13:18:30.453Z,98638.00
2023-02-25T13:20:59.432Z,98640.00
2023-02-25T13:22:59.079Z,98640.00
2023-02-25T13:24:57.433Z,98645.00
2023-02-25T13:27:19.227Z,98638.00
2023-02-25T13:29:36.741Z,98641.00
2023-02-25T13:31:22.916Z,98639.00
2023-02-25T13:33:57.384Z,98641.00
2023-02-25T13:35:51.156Z,98639.00
2023-02-25T13:37:54.719Z,98647.00
2023-02-25T13:40:17.744Z,98634.00
2023-02-25T13:42:33.988Z,98634.00
2023-02-25T13:44:46.561Z,98650.00
2023-02-25T13:46:55.030Z,98646.00
2023-02-25T13:49:16.986Z,98647.00
2023-02-25T13:51:26.436Z,98652.00
2023-02-25T13:53:32.512Z,98656.00
2023-02-25T13:55:35.812Z,98647.00
2023-02-25T13:57:33.225Z,98654.00
2023-02-25T13:59:59.109Z,98651.00
2023-02-25T14:01:56.669Z,98668.00
2023-02-25T14:04:09.256Z,98665.00
2023-02-25T14:06:03.360Z,98663.00
2023-02-25T14:08:22.406Z,98657.00
2023-02-25T14:10:15.414Z,98663.00
2023-02-25T14:12:12.578Z,98656.00
2023-02-25T14:14:14.399Z,98656.00
2023-02-25T14:16:04.718Z,98661.00
2023-02-25T14:18:07.142Z,98650.00
2023-02-25T14:19:52.830Z,98654.00
2023-02-25T14:22:01.769Z,98664.00
2023-02-25T14:23:51.636Z,98670.00
2023-02-25T14:25:46.581Z,98680.00
2023-02-25T14:27:32.404Z,98682.00
2023-02-25T14:29:21.845Z,98685.00
2023-02-25T14:31:14.137Z,98680.00
2023-02-25T14:33:12.423Z,98681.00
2023-02-25T14:35:06.578Z,98693.00
2023-02-25T14:37:02.669Z,98689.00
2023-02-25T14:39:23.671Z,98696.00
2023-02-25T14:41:14.716Z,98693.00
2023-02-25T14:43:27.268Z,98704.00
2023-02-25T14:45:13.920Z,98706.00
2023-02-25T14:46:56.204Z,98708.00
2023-02-25T14:48:39.486Z,98696.00
2023-02-25T14:50:21.721Z,98703.00
2023-02-25T14:52:33.273Z,98710.00
2023-02-25T14:54:48.710Z,98711.00
2023-02-25T14:56:52.156Z,98707.00
2023-02-25T14:59:08.416Z,98714.00
2023-02-25T15:01:06.191Z,98710.00
2023-02-25T15:03:32.617Z,98711.00
2023-02-25T15:05:32.423Z,98715.00
2023-02-25T15:07:27.743Z,98713.00
2023-02-25T15:09:48.046Z,98722.00
2023-02-25T15:11:56.468Z,98719.00
2023-02-25T15:14:12.506Z,98724.00
2023-02-25T15:16:37.699Z,98737.00
2023-02-25T15:18:53.082Z,98734.00
2023-02-25T15:20:34.503Z,98727.00
2023-02-25T15:22:25.148Z,98735.00
2023-02-25T15:23:59.338Z,98738.00
2023-02-25T15:25:46.285Z,98739.00
2023-02-25T15:27:47.986Z,98730.00
2023-02-25T15:29:59.531Z,98729.00
2023-02-25T15:31:38.701Z,98749.00
2023-02-25T15:33:38.415Z,98737.00
2023-02-25T15:35:20.814Z,98749.00
2023-02-25T15:37:24.970Z,98749.00
2023-02-25T15:38:58.632Z,98758.00
2023-02-25T15:40:51.359Z,98756.00
2023-02-25T15:42:49.320Z,98766.00
2023-02-25T15:44:38.318Z,98753.00
2023-02-25T15:46:41.035Z,98765.00
2023-02-25T15:48:38.385Z,98766.00
2023-02-25T15:50:12.854Z,98762.00
2023-02-25T15:51:51.522Z,98775.00
2023-02-25T15:53:55.544Z,98775.00
2023-02-25T15:55:40.838Z,98780.00
2023-02-25T15:57:49.535Z,98781.00
2023-02-25T15:59:46.693Z,98801.00
2023-02-25T16:01:42.772Z,98784.00
2023-02-25T16:03:43.769Z,98796.00
2023-02-25T16:05:28.581Z,98795.00
2023-02-25T16:07:01.741Z,98796.00
2023-02-25T16:08:40.920Z,98806.00
2023-02-25T16:10:27.583Z,98811.00
2023-02-25T16:12:08.771Z,98810.00
2023-02-25T16:13:43.932Z,98803.00
2023-02-25T16:15:28.643Z,98805.00
2023-02-25T16:17:07.813Z,98819.00
2023-02-25T16:18:49.083Z,98814.00
2023-02-25T16:20:29.612Z,98821.00
2023-02-25T16:22:09.239Z,98827.00
2023-02-25T16:23:44.412Z,98826.00
2023-02-25T16:25:26.907Z,98826.00
2023-02-25T16:27:06.317Z,98826.00
2023-02-25T16:28:55.114Z,98829.00
2023-02-25T16:30:41.407Z,98826.00
2023-02-25T16:32:30.057Z,98830.00
2023-02-25T16:34:12.373Z,98838.00
2023-02-25T16:36:02.611Z,98833.00
2023-02-25T16:37:51.456Z,98833.00
2023-02-25T16:39:29.036Z,98843.00
2023-02-25T16:41:02.886Z,98853.00
2023-02-25T16:42:36.344Z,98853.00
2023-02-25T16:44:10.210Z,98858.00
2023-02-25T16:45:56.121Z,98860.00
2023-02-25T16:47:32.651Z,98861.00
2023-02-25T16:49:14.819Z,98869.00
2023-02-25T16:50:51.390Z,98859.00
2023-02-25T16:52:31.531Z,98873.00
2023-02-25T16:54:10.023Z,98868.00
2023-02-25T16:55:43.283Z,98865.00
2023-02-25T16:57:24.664Z,98882.00
2023-02-25T16:59:06.967Z,98874.00
2023-02-25T17:00:53.096Z,98887.00
2023-02-25T17:02:26.688Z,98886.00
2023-02-25T17:04:16.208Z,98885.00
2023-02-25T17:06:04.687Z,98898.00
2023-02-25T17:07:37.747Z,98889.00
2023-02-25T17:09:24.358Z,98891.00
2023-02-25T17:11:02.164Z,98884.00
2023-02-25T17:12:41.084Z,98897.00
2023-02-25T17:14:14.404Z,98897.00
2023-02-25T17:15:47.743Z,98903.00
2023-02-25T17:17:29.033Z,98901.00
2023-02-25T17:19:06.101Z,98906.00
2023-02-25T17:20:42.458Z,98905.00
2023-02-25T17:22:22.385Z,98911.00
2023-02-25T17:23:56.944Z,98910.00
2023-02-25T17:25:38.215Z,98913.00
2023-02-25T17:27:12.810Z,98916.00
2023-02-25T17:28:50.477Z,98926.00
2023-02-25T17:30:40.391Z,98918.00
2023-02-25T17:32:21.721Z,98924.00
2023-02-25T17:33:57.320Z,98922.00
2023-02-25T17:35:32.124Z,98925.00
2023-02-25T17:37:13.292Z,98924.00
2023-02-25T17:38:59.016Z,98933.00
2023-02-25T17:40:33.156Z,98935.00
2023-02-25T17:42:32.247Z,98936.00
2023-02-25T17:44:05.889Z,98943.00
2023-02-25T17:45:44.641Z,98941.00
2023-02-25T17:47:24.454Z,98941.00
2023-02-25T17:49:01.256Z,98943.00
2023-02-25T17:50:34.716Z,98953.00
2023-02-25T17:52:21.682Z,98952.00
2023-02-25T17:53:59.155Z,98958.00
2023-02-25T17:55:36.292Z,98965.00
2023-02-25T17:57:15.006Z,98951.00
2023-02-25T17:58:49.008Z,98964.00
2023-02-25T18:00:27.282Z,98968.00
2023-02-25T18:02:03.188Z,98964.00
2023-02-25T18:03:46.655Z,98962.00
2023-02-25T18:05:25.387Z,98973.00
2023-02-25T18:07:00.172Z,98974.00
2023-02-25T18:08:53.448Z,98971.00
2023-02-25T18:10:50.036Z,98983.00
2023-02-25T18:12:27.981Z,98979.00
2023-02-25T18:14:27.963Z,98982.00
2023-02-25T18:16:40.654Z,98987.00
2023-02-25T18:18:22.965Z,98991.00
2023-02-25T18:19:59.072Z,98993.00
2023-02-25T18:21:32.228Z,98988.00
2023-02-25T18:23:08.749Z,98995.00
2023-02-25T18:24:55.378Z,99003.00
2023-02-25T18:26:28.434Z,99013.00
2023-02-25T18:28:02.731Z,99007.00
2023-02-25T18:29:36.047Z,99005.00
2023-02-25T18:31:09.807Z,99007.00
2023-02-25T18:32:43.250Z,99010.00
2023-02-25T18:34:16.387Z,99016.00
2023-02-25T18:35:50.114Z,99013.00
2023-02-25T18:37:23.546Z,99009.00
2023-02-25T18:39:04.545Z,99018.00
2023-02-25T18:40:42.118Z,99017.00
2023-02-25T18:42:18.553Z,99020.00
2023-02-25T18:43:54.439Z,99027.00
2023-02-25T18:45:30.630Z,99022.00
2023-02-25T18:47:03.996Z,99022.00
2023-02-25T18:48:37.325Z,99020.00
2023-02-25T18:50:12.761Z,99030.00
2023-02-25T18:51:46.370Z,99023.00
2023-02-25T18:53:24.304Z,99019.00
2023-02-25T18:54:57.446Z,99027.00
2023-02-25T18:56:32.758Z,99036.00
2023-02-25T18:58:05.969Z,99040.00
2023-02-25T18:59:39.037Z,99044.00
2023-02-25T19:01:23.604Z,99032.00
2023-02-25T19:03:00.833Z,99035.00
2023-02-25T19:04:34.158Z,99036.00
2023-02-25T19:06:08.141Z,99050.00
2023-02-25T19:07:41.502Z,99036.00
2023-02-25T19:09:16.030Z,99050.00
2023-02-25T19:10:50.003Z,99048.00
2023-02-25T19:12:26.545Z,99044.00
2023-02-25T19:13:59.894Z,99038.00
2023-02-25T19:15:34.158Z,99031.00
2023-02-25T19:17:08.831Z,99031.00
2023-02-25T19:18:42.920Z,99053.00
2023-02-25T19:20:19.437Z,99048.00
2023-02-25T19:21:52.541Z,99055.00
2023-02-25T19:23:25.827Z,99051.00
2023-02-25T19:24:59.183Z,99054.00
2023-02-25T19:26:32.744Z,99058.00
2023-02-25T19:28:09.029Z,99055.00
2023-02-25T19:29:42.772Z,99057.00
2023-02-25T19:31:17.913Z,99054.00
2023-02-25T19:32:51.609Z,99060.00
2023-02-25T19:34:25.759Z,99067.00
2023-02-25T19:35:58.926Z,99058.00
2023-02-25T19:37:38.569Z,99064.00
2023-02-25T19:39:11.949Z,99068.00
2023-02-25T19:40:47.100Z,99074.00
2023-02-25T19:42:21.244Z,99064.00
2023-02-25T19:43:55.772Z,99065.00
2023-02-25T19:45:29.027Z,99069.00
2023-02-25T19:47:03.004Z,99069.00
2023-02-25T19:48:36.841Z,99073.00
2023-02-25T19:50:11.898Z,99082.00
2023-02-25T19:51:45.161Z,99076.00
2023-02-25T19:53:18.953Z,99083.00
2023-02-25T19:54:52.320Z,99077.00
2023-02-25T19:56:25.680Z,99079.00
2023-02-25T19:57:59.008Z,99080.00
2023-02-25T19:59:33.564Z,99077.00
2023-02-25T20:01:09.671Z,99084.00
2023-02-25T20:02:43.511Z,99090.00
2023-02-25T20:04:17.626Z,99095.00
2023-02-25T20:05:52.099Z,99101.00
2023-02-25T20:07:25.620Z,99097.00
2023-02-25T20:08:58.791Z,99093.00
2023-02-25T20:10:32.015Z,99101.00
2023-02-25T20:12:06.400Z,99104.00
2023-02-25T20:13:41.411Z,99101.00
2023-02-25T20:15:17.787Z,99099.00
2023-02-25T20:16:51.810Z,99107.00
2023-02-25T20:18:25.009Z,99111.00
2023-02-25T20:19:58.389Z,99109.00
2023-02-25T20:21:31.943Z,99106.00
2023-02-25T20:23:05.150Z,99110.00
2023-02-25T20:24:38.337Z,99110.00
2023-02-25T20:26:17.220Z,99115.00
2023-02-25T20:27:50.512Z,99112.00
2023-02-25T20:29:24.308Z,99113.00
2023-02-25T20:31:06.517Z,99123.00
2023-02-25T20:32:39.769Z,99117.00
2023-02-25T20:34:18.827Z,99118.00
2023-02-25T20:35:52.419Z,99121.00